SBMN/MAO METAR and TAF weather

Enter ICAO airport designator
Station Type Date Time Source
SBMN METAR 2022/01/29 11:00 UTC NOAA

SBMN 291100Z 05004KT 9999 FEW007 BKN090 25/24 Q1009


Station Type Date Time Source
SBMN Decoded METAR 2022/01/29 11:00 UTC NOAA

Manaus Aeroporto , Brazil (SBMN) 03-09S 059-59W 84M
Jan 29, 2022 - 06:00 AM EST / 2022.01.29 1100 UTC
Wind: from the NE (050 degrees) at 5 MPH (4 KT):0
Visibility: greater than 7 mile(s):0
Sky conditions: mostly cloudy
Temperature: 77 F (25 C)
Dew Point: 75 F (24 C)
Relative Humidity: 94%
Pressure (altimeter): 29.80 in. Hg (1009 hPa)
ob: SBMN 291100Z 05004KT 9999 FEW007 BKN090 25/24 Q1009
cycle: 11

Station Type Date Time Source
SBMN TAF 2022/01/29 12:18 UTC NOAA

TAF TAF SBMN 290900Z 2912/2924 08005KT 8000 SCT012 TN24/2912Z TX29/2916Z
BECMG 2914/2916 SCT020 FEW030TCU
RMK PEU

Example: see airport list